Date,TemperatureHighF,TemperatureAvgF,TemperatureLowF,DewpointHighF,DewpointAvgF,DewpointLowF,HumidityHigh,HumidityAvg,HumidityLow,PressureMaxIn,PressureMinIn,WindSpeedMaxMPH,WindSpeedAvgMPH,GustSpeedMaxMPH,PrecipitationSumIn
2013-1-1,44.6,35.5,29.1,38.9,23.6,13.5,98,65,31,30.42,30.27,7,1,10,0.00
2013-1-2,47.1,35.5,28.8,29.4,19.2,11.6,81,55,24,30.27,29.56,6,0,8,0.01
2013-1-3,48.6,35.9,27.0,35.8,17.0,-0.1,92,50,15,30.12,30.04,8,1,12,0.21
2013-1-4,51.1,44.8,37.9,40.0,34.5,27.3,95,69,42,30.24,30.09,11,3,17,0.04
2013-1-5,49.1,43.8,41.4,47.8,27.3,19.7,98,53,38,30.12,30.04,8,1,14,0.05
2013-1-6,48.2,43.8,40.8,42.0,31.1,25.4,79,62,45,30.12,29.92,10,5,14,0.04
2013-1-7,53.1,47.5,42.3,45.9,36.5,28.6,87,66,48,30.09,29.74,14,6,23,0.04
2013-1-8,52.2,47.7,43.0,49.6,39.5,29.8,98,74,51,30.09,29.68,18,6,26,0.62
2013-1-9,50.5,42.2,36.9,44.9,33.9,23.8,82,73,48,29.89,29.59,14,3,20,0.87
2013-1-10,41.5,36.6,30.7,40.5,28.6,19.3,98,73,55,30.04,29.86,7,1,8,0.05
2013-1-11,41.4,32.7,27.7,25.1,15.2,2.6,78,50,23,30.27,30.04,8,1,9,0.00
2013-1-12,40.5,30.8,25.5,24.2,16.1,9.0,82,57,30,30.36,30.24,9,1,11,0.00
2013-1-13,41.2,31.8,25.0,40.7,19.8,8.5,98,64,30,30.42,30.36,4,0,5,0.00
2013-1-14,39.2,36.1,33.3,32.5,17.9,11.9,95,48,33,30.48,30.36,6,1,8,0.00
2013-1-15,46.6,36.8,31.3,36.3,19.3,13.7,69,50,29,30.63,30.48,7,1,10,0.00
2013-1-16,43.3,34.9,28.0,30.8,20.8,13.7,89,59,30,30.60,30.45,8,1,11,0.00
2013-1-17,45.5,34.7,27.9,44.8,28.1,22.5,98,77,47,30.45,30.21,4,0,5,0.00
2013-1-18,39.0,36.2,34.0,35.6,30.9,24.7,96,82,58,30.27,30.15,5,1,8,0.00
2013-1-19,42.8,36.3,34.2,42.1,30.0,22.3,98,79,52,30.33,30.24,6,1,8,0.00
2013-1-20,44.1,38.3,35.1,37.0,29.1,20.9,93,71,41,30.33,30.18,9,2,13,0.00
2013-1-21,44.2,36.5,33.4,43.5,29.6,20.3,98,77,43,30.18,30.06,6,0,9,0.00
2013-1-22,43.2,37.1,32.7,32.0,27.8,19.8,91,71,40,30.06,29.86,5,0,6,0.00
2013-1-23,46.9,42.1,39.7,45.9,29.8,16.8,98,63,38,30.06,29.80,10,2,13,0.24
2013-1-24,46.9,43.6,41.5,39.6,31.3,21.6,86,63,37,30.12,29.98,8,2,13,0.09
2013-1-25,53.1,47.0,43.2,49.1,34.3,25.1,98,64,36,30.01,29.86,8,2,13,0.04
2013-1-26,45.3,43.1,41.4,36.6,30.8,25.8,82,62,49,29.98,29.80,10,4,15,0.25
2013-1-27,46.4,41.9,40.6,40.7,31.3,26.3,90,66,55,29.98,29.92,10,4,14,0.04
2013-1-28,43.3,41.8,39.4,40.1,34.9,30.7,89,76,66,30.01,29.92,7,1,9,0.21
2013-1-29,52.3,45.9,42.8,51.1,39.7,31.1,96,79,49,30.27,30.01,10,2,13,0.33
2013-1-30,49.5,47.7,45.3,46.8,44.1,40.1,95,87,76,30.30,30.24,6,0,9,0.21
2013-1-31,52.5,48.3,47.1,50.2,39.7,30.5,98,73,45,30.30,30.24,10,2,15,0.08
2013-2-5,46.0,45.3,44.8,36.5,33.2,30.3,72,63,55,30.24,29.80,13,8,22,0.12
2013-2-6,51.8,46.3,44.1,38.4,31.5,23.2,77,57,34,29.98,29.74,23,4,23,0.09
2013-2-7,52.0,45.3,39.2,35.3,25.6,16.3,72,48,26,30.12,29.74,14,4,19,0.08
2013-2-8,50.0,43.1,38.8,44.6,28.1,21.2,98,57,36,30.24,30.12,5,0,9,0.00
2013-2-9,49.8,43.8,41.2,48.8,31.5,21.6,98,63,37,30.27,30.18,5,0,6,0.00
2013-2-10,49.8,43.1,36.1,46.6,28.9,15.4,97,60,27,30.30,30.24,7,0,8,0.00
2013-2-11,52.2,45.4,42.1,43.6,30.0,21.6,91,56,33,30.30,30.24,7,1,9,0.00
2013-2-12,50.4,47.6,45.3,44.5,38.0,31.3,91,70,6,30.33,30.21,12,3,16,0.00
2013-2-13,51.8,47.2,45.7,50.9,34.1,26.0,98,61,40,30.42,30.21,8,0,12,0.04
2013-2-14,49.5,46.7,44.1,40.6,36.0,29.3,79,67,48,30.48,30.42,6,0,8,0.04
2013-2-15,56.5,48.1,43.2,41.8,35.1,26.0,88,64,32,30.48,30.15,10,2,16,0.00
2013-2-16,48.7,47.6,42.4,37.5,32.9,28.9,77,57,46,30.15,30.09,9,5,13,0.00
2013-2-22,48.7,43.0,38.8,40.6,28.3,19.8,92,57,40,30.09,29.62,19,8,26,0.09
2013-2-23,51.6,44.0,39.0,29.3,22.7,12.4,66,44,21,30.30,29.83,9,3,13,0.00
2013-2-24,49.3,45.5,41.5,25.7,21.8,15.9,52,39,28,30.30,29.89,16,7,26,0.00
2013-2-25,55.8,45.6,40.1,34.4,22.0,3.1,72,44,12,30.24,29.80,14,6,23,0.22
2013-2-26,49.3,44.3,38.7,29.1,20.7,10.1,64,40,24,30.27,30.12,12,5,17,0.00
2013-2-27,51.1,45.5,41.9,40.5,32.9,22.8,84,63,36,30.24,30.12,10,1,13,0.21
2013-2-28,53.1,48.1,43.3,50.0,42.4,38.5,96,81,70,30.24,30.12,10,3,14,0.21
2013-3-1,57.2,53.4,50.9,50.8,41.4,33.0,96,66,42,30.30,30.21,12,6,18,0.12
2013-3-2,58.1,50.8,39.2,45.8,33.0,26.3,94,52,35,30.21,30.01,12,5,17,0.12
2013-3-3,61.7,42.9,34.9,33.1,21.2,-99.9,86,50,13,30.24,30.12,59,1,10,0.00
2013-3-4,52.9,42.3,32.4,23.3,16.1,-0.1,67,38,14,30.24,29.86,10,2,14,0.00
2013-3-5,50.9,44.9,38.7,39.6,21.0,8.3,78,40,26,29.86,29.68,8,2,10,0.00
2013-3-6,44.4,43.1,41.4,40.3,35.1,28.2,90,73,54,29.83,29.50,12,3,16,0.59
2013-3-7,54.7,46.6,40.5,47.7,31.9,18.0,98,61,26,30.04,29.83,8,2,10,0.20
2013-3-8,54.3,44.1,37.6,37.9,26.4,13.5,90,54,20,30.18,30.01,10,2,13,0.00
2013-3-9,57.4,44.3,33.8,38.1,23.2,7.2,97,51,14,30.42,30.18,6,1,8,0.00
2013-3-10,53.1,44.9,38.5,45.6,29.0,18.0,86,55,27,30.42,30.36,7,1,8,0.00
2013-3-11,56.3,48.3,42.1,41.7,32.4,19.2,81,57,27,30.36,30.09,104,1,10,1.67
2013-3-12,55.4,52.0,49.3,48.8,41.6,30.5,93,69,39,30.09,30.01,14,8,20,0.05
2013-3-13,54.9,51.8,50.5,47.4,42.9,38.9,79,72,60,30.15,30.04,14,6,21,0.12
2013-3-14,54.3,51.4,43.2,45.9,37.5,28.1,88,60,37,30.09,29.77,19,4,19,0.00
2013-3-15,60.4,53.2,49.3,52.6,38.3,31.3,98,59,34,30.15,30.06,11,5,14,0.00
2013-3-16,53.2,47.8,39.9,40.6,30.3,17.8,84,52,29,30.06,29.83,16,6,23,0.04
2013-3-17,53.2,43.5,38.7,32.5,22.3,6.9,70,45,16,30.12,29.92,11,4,15,0.00
2013-3-18,57.2,46.2,39.9,31.1,20.8,7.8,64,39,15,30.18,30.04,14,5,23,0.04
2013-3-19,58.1,44.6,36.7,44.0,24.2,4.0,93,49,12,30.18,29.53,10,2,15,0.33
2013-3-20,54.3,48.2,40.5,44.3,30.2,17.6,87,53,26,29.95,29.33,17,7,28,0.54
2013-3-21,53.1,42.3,37.4,28.9,22.4,9.8,69,46,21,30.15,29.95,11,4,16,0.04
2013-3-22,52.0,41.3,35.6,38.7,19.3,1.4,93,47,14,30.30,30.15,8,2,10,0.05
2013-3-23,55.4,43.2,34.7,40.7,15.0,1.6,98,37,13,30.33,30.21,8,1,10,0.00
2013-3-24,56.7,43.6,32.7,22.9,14.4,2.6,59,34,12,30.24,30.06,6,1,7,0.00
2013-3-25,63.5,50.1,35.4,39.4,11.7,2.6,96,25,11,30.06,29.89,8,2,11,0.00
2013-3-26,64.0,52.8,46.4,26.7,17.5,6.0,44,27,11,29.98,29.89,7,1,9,0.00
2013-3-27,59.7,51.1,45.1,38.0,29.0,17.0,76,44,24,29.92,29.86,6,1,8,0.00
2013-3-28,66.0,53.5,43.5,43.6,32.5,11.9,87,52,13,30.09,29.92,7,1,9,0.04
2013-3-29,66.6,55.1,45.3,51.8,26.9,8.0,98,41,12,30.18,30.09,8,2,11,0.00
2013-3-30,64.9,53.8,44.4,41.3,27.0,11.4,85,42,13,30.18,30.01,13,4,17,0.00
2013-3-31,67.8,56.9,44.4,47.8,19.6,7.0,85,27,10,30.01,29.86,9,3,13,0.00
2013-4-1,63.7,54.0,48.4,51.0,32.7,22.1,96,47,21,30.09,29.92,9,4,13,0.00
2013-4-2,61.2,53.5,50.0,33.7,30.2,24.8,53,41,25,30.12,30.09,9,4,12,0.00
2013-4-3,65.1,55.1,46.9,40.5,29.2,11.8,74,42,13,30.12,29.89,8,2,10,0.00
2013-4-4,56.5,53.3,50.2,55.2,41.4,30.0,98,65,43,29.89,29.59,13,2,19,0.37
2013-4-5,59.2,53.4,50.0,48.7,40.3,30.8,92,63,37,29.80,29.65,13,6,18,0.71
2013-4-6,56.8,49.3,46.6,44.7,35.1,27.2,84,59,35,29.86,29.62,14,7,25,0.45
2013-4-7,50.9,45.1,41.0,50.4,36.4,28.9,98,72,50,29.83,29.44,8,1,10,0.71
2013-4-8,61.3,50.4,43.7,39.0,31.7,16.8,81,53,22,30.21,29.83,6,2,9,0.04
2013-4-9,56.7,50.8,45.0,44.4,27.1,19.7,86,42,25,30.30,30.12,9,3,13,0.00
2013-4-10,62.8,53.7,49.5,48.3,32.7,23.4,89,47,28,30.18,29.86,13,5,17,0.17
2013-4-11,57.9,49.7,46.4,39.4,24.8,7.5,74,41,14,30.24,30.12,9,3,13,0.03
2013-4-12,47.7,44.7,41.7,42.0,29.5,20.3,87,57,36,30.12,29.62,12,4,19,0.17
2013-4-13,53.1,43.8,38.1,47.5,29.9,20.9,98,60,30,29.95,29.68,13,3,19,0.50
2013-4-14,58.5,47.9,38.8,44.4,25.0,3.7,87,48,12,29.95,29.89,8,1,10,0.04
2013-4-15,58.5,48.6,39.9,48.2,22.0,3.8,98,43,12,30.12,29.89,10,3,15,0.00
2013-4-16,61.2,48.7,38.3,37.6,19.9,2.6,81,39,11,30.33,30.12,8,2,12,0.00
2013-4-17,62.6,50.6,39.6,29.4,20.6,6.0,62,35,11,30.39,30.33,9,3,13,0.00
2013-4-18,52.2,48.6,45.0,44.7,31.6,23.6,82,53,36,30.39,30.15,12,5,15,0.08
2013-4-19,58.3,51.9,49.3,55.7,44.5,36.9,94,76,49,30.15,30.01,14,4,22,0.42
2013-4-20,59.4,51.4,47.8,44.8,37.6,25.1,80,61,28,30.21,30.12,8,2,14,0.16
2013-4-21,56.7,48.9,43.9,47.3,32.1,21.8,80,54,27,30.30,30.15,10,2,15,0.13
2013-4-22,61.2,50.6,38.8,46.1,16.9,-0.1,98,35,11,30.45,30.30,12,4,17,0.00
2013-4-23,65.8,51.9,37.0,27.7,12.2,4.5,56,24,10,30.36,30.18,11,2,19,0.00
2013-4-24,71.8,57.3,41.4,29.1,14.8,3.8,55,23,9,30.24,30.01,9,2,13,0.00
2013-4-25,75.6,60.2,44.1,32.9,15.0,6.7,45,20,8,30.09,29.98,8,1,12,0.00
2013-4-26,69.4,57.7,47.1,43.2,28.6,11.0,81,38,12,30.21,30.09,10,2,15,0.00
2013-4-27,57.7,54.7,52.7,36.7,28.5,17.8,54,37,25,30.15,30.09,13,5,21,0.00
2013-4-28,62.8,53.7,48.7,44.5,32.9,20.9,73,48,21,30.15,29.89,12,4,18,0.00
2013-4-29,62.1,51.8,45.3,45.6,23.0,3.8,87,39,11,30.09,29.86,10,4,15,0.08
2013-4-30,59.9,48.9,38.8,34.9,17.6,2.6,75,33,12,30.36,30.09,8,2,11,0.04
2013-5-1,65.1,52.4,37.4,29.2,14.4,3.8,66,27,10,30.48,30.36,10,3,15,0.00
2013-5-2,67.5,55.6,43.7,28.1,17.8,6.7,50,25,10,30.48,30.27,11,3,18,0.00
2013-5-3,53.1,52.7,52.5,20.0,19.7,19.1,27,27,27,30.30,30.30,5,3,8,0.00
2013-5-5,79.0,69.6,50.0,42.2,25.8,9.2,42,22,8,30.18,30.18,8,1,11,0.00
2013-5-6,88.2,70.2,52.5,58.0,23.7,8.5,97,23,6,30.18,30.18,10,2,14,0.00
2013-5-7,75.6,61.4,53.1,41.8,33.0,14.9,65,38,10,30.18,30.18,9,4,13,0.00
2013-5-8,69.6,58.8,53.1,39.5,34.4,25.4,60,42,20,30.18,30.18,8,3,10,0.00
2013-5-9,72.5,58.6,50.2,47.2,37.0,14.5,80,50,11,30.18,30.18,8,2,10,0.00
2013-5-10,81.9,64.3,49.1,46.0,28.8,9.6,82,35,7,30.18,30.06,8,2,11,0.01
2013-5-11,84.0,66.5,55.2,38.4,25.9,8.7,50,26,7,30.12,29.95,8,2,10,0.00
2013-5-12,73.6,63.9,59.4,53.5,40.9,30.0,78,45,21,30.04,29.98,10,5,15,0.04
2013-5-13,66.4,58.4,50.2,51.4,37.5,20.7,78,47,24,30.15,29.89,16,6,23,0.26
2013-5-14,70.5,58.1,49.1,44.3,22.1,6.7,56,30,9,30.15,30.06,8,3,10,0.00
2013-5-15,71.1,57.1,48.0,46.5,30.7,8.5,81,42,10,30.06,29.98,8,2,12,0.04
2013-5-16,72.9,62.1,54.7,47.6,36.4,14.3,75,44,11,29.98,29.83,10,3,15,0.00
2013-5-17,67.1,58.9,54.1,44.2,33.8,16.0,68,42,17,30.01,29.89,10,5,13,0.00
2013-5-18,65.7,58.1,52.3,40.7,30.0,15.9,62,36,15,30.21,30.01,9,4,12,0.00
2013-5-19,68.0,59.2,52.9,37.9,31.8,17.3,52,37,15,30.36,30.21,8,2,10,0.00
2013-5-20,72.7,57.7,46.9,55.8,31.5,13.0,97,42,11,30.30,29.86,10,2,12,0.00
2013-5-21,59.2,52.0,47.5,57.9,36.9,25.6,97,58,29,29.86,29.74,8,2,13,0.41
2013-5-22,57.0,50.5,47.3,43.9,35.6,28.3,83,58,36,29.89,29.80,7,2,10,0.00
2013-5-23,63.5,52.4,46.6,52.7,32.8,14.5,98,50,16,29.98,29.86,10,3,17,0.04
2013-5-24,67.8,56.2,46.9,44.3,29.4,7.5,80,43,10,30.01,29.92,9,3,12,0.00
2013-5-25,68.2,57.8,51.6,39.3,28.6,11.5,55,36,12,29.98,29.92,9,4,12,0.00
2013-5-26,67.5,57.4,51.1,47.3,38.8,29.1,76,52,26,29.95,29.86,8,2,12,0.04
2013-5-27,63.3,57.8,53.2,60.5,45.1,36.2,94,63,46,29.92,29.65,7,2,10,0.29
2013-5-28,66.2,57.6,52.9,45.0,36.0,27.3,73,46,25,29.83,29.74,10,5,15,0.00
2013-5-29,62.4,56.0,51.4,47.2,36.7,28.1,82,50,28,29.92,29.65,9,2,16,0.13
2013-5-30,66.0,56.9,50.5,37.8,30.3,18.5,56,38,18,30.18,29.92,11,6,15,0.00
2013-5-31,72.3,61.3,52.2,38.4,24.8,8.0,59,31,9,30.27,30.18,9,3,13,0.00
2013-6-1,76.5,62.7,54.0,35.7,25.3,8.5,48,28,8,30.21,30.01,12,3,20,0.00
2013-6-2,75.7,64.6,54.7,47.5,28.6,14.3,64,30,10,30.04,29.98,10,3,13,0.01
2013-6-3,76.5,61.9,53.4,45.3,34.0,14.9,74,40,10,30.06,30.01,8,3,13,0.00
2013-6-4,79.3,65.7,51.8,44.2,27.5,12.1,70,30,10,30.06,29.98,10,4,15,0.00
2013-6-5,79.7,66.7,51.6,55.8,33.6,15.6,80,31,13,30.04,29.98,10,3,17,0.00
2013-6-6,83.1,68.1,54.1,46.3,24.8,8.7,71,26,6,30.01,29.98,9,2,13,0.00
2013-6-7,71.8,63.2,57.4,45.7,31.1,12.1,46,31,12,30.09,29.98,9,2,13,0.00
2013-6-8,72.7,62.5,56.1,33.7,29.1,14.3,42,30,11,30.12,30.06,10,3,14,0.00
2013-6-9,71.6,60.3,54.5,40.1,29.6,14.1,52,33,11,30.06,29.98,10,2,17,0.00
2013-6-10,74.8,62.0,49.6,35.6,26.1,8.5,54,29,8,29.98,29.83,8,2,15,0.00
2013-6-11,68.4,58.8,53.4,46.4,30.7,16.3,61,36,15,30.06,29.89,11,5,16,0.25
2013-6-12,72.0,61.8,53.1,41.5,27.2,8.9,56,31,9,30.09,30.06,10,5,14,0.00
2013-6-13,73.2,62.3,54.7,55.6,30.1,14.2,84,34,11,30.18,30.09,8,3,13,0.00
2013-6-14,71.4,61.4,55.6,39.7,29.2,13.5,54,32,12,30.18,30.01,9,4,13,0.00
2013-6-15,74.3,63.4,51.6,45.3,32.1,14.3,76,37,11,30.01,29.86,11,3,17,0.00
2013-6-16,79.7,65.6,55.8,45.9,35.0,21.3,68,36,12,30.04,29.95,8,3,11,0.00
2013-6-17,81.0,67.9,58.5,49.7,30.8,9.7,63,30,7,30.04,29.89,10,3,18,0.00
2013-6-18,78.3,66.5,56.8,47.7,27.0,8.5,71,30,8,29.95,29.86,10,4,14,0.00
2013-6-19,72.5,62.6,56.7,40.8,32.1,14.5,55,35,11,29.98,29.89,7,3,11,0.00
2013-6-20,62.8,58.1,54.5,50.5,42.2,32.9,82,57,36,30.04,29.89,8,3,10,0.58
2013-6-21,73.0,62.0,54.3,50.5,35.8,13.2,85,48,11,30.09,30.04,8,1,10,0.00
2013-6-22,82.8,67.5,53.1,47.4,29.6,9.2,74,33,7,30.06,29.83,8,2,13,0.00
2013-6-23,73.4,65.9,60.3,56.3,41.6,32.3,80,43,26,29.83,29.56,5,0,6,0.13
2013-6-24,71.1,63.5,57.2,57.0,42.7,26.0,86,52,19,29.65,29.53,11,4,16,0.12
2013-6-25,78.3,64.7,58.3,55.4,42.4,14.9,84,52,10,29.83,29.62,13,2,22,0.46
2013-6-26,74.1,65.1,58.6,54.6,45.2,32.1,83,53,24,30.04,29.80,9,2,13,0.04
2013-6-27,72.7,66.2,61.5,56.9,49.3,42.0,83,56,35,30.15,30.01,6,1,8,0.12
2013-6-28,90.0,73.5,59.9,55.6,40.1,17.3,82,40,7,30.15,30.04,9,2,14,0.00
2013-6-29,89.4,74.9,64.9,53.5,36.5,16.5,64,31,8,30.06,29.98,8,2,11,0.00
2013-6-30,92.1,76.3,60.6,50.5,34.4,17.4,54,27,7,30.01,29.83,11,3,15,0.00
2013-7-1,90.0,77.0,64.6,48.1,34.0,17.4,54,25,7,30.01,29.89,8,2,11,0.00
2013-7-2,85.8,73.0,61.7,49.7,30.3,14.3,63,25,8,30.09,30.01,12,2,15,0.00
2013-7-3,78.6,69.8,62.4,37.3,22.4,10.9,37,18,8,30.09,30.04,11,3,15,0.00
2013-7-4,76.8,66.2,59.7,40.4,31.4,14.9,46,30,10,30.09,29.98,8,2,11,0.00
2013-7-5,80.1,67.7,56.3,49.0,31.6,15.2,75,32,10,30.01,29.92,8,2,11,0.00
2013-7-6,81.5,68.3,56.7,50.9,32.3,9.6,78,33,7,29.95,29.86,9,3,14,0.00
2013-7-7,79.9,67.2,58.5,52.2,39.5,26.0,75,40,15,29.92,29.86,7,2,8,0.00
2013-7-8,82.6,68.3,57.7,51.2,34.4,15.7,74,35,9,30.06,29.92,8,3,11,0.00
2013-7-9,84.0,70.8,57.7,50.2,31.2,15.0,75,31,9,30.06,29.98,9,2,13,0.00
2013-7-10,75.6,65.3,58.8,47.7,34.2,20.3,66,33,13,30.04,29.92,8,3,10,0.00
2013-7-11,74.3,63.2,57.6,36.0,28.0,8.5,44,28,11,30.04,29.95,10,3,14,0.00
2013-7-12,71.6,61.5,54.5,38.6,32.6,24.7,50,35,19,30.06,29.95,6,1,10,0.00
2013-7-13,78.3,65.0,50.9,38.6,24.6,8.5,54,27,8,30.12,30.06,10,3,13,0.00
2013-7-14,84.6,67.9,52.2,43.1,22.3,8.5,66,24,6,30.09,29.95,10,3,17,0.00
2013-7-15,80.1,69.2,55.9,38.4,22.0,8.5,50,21,7,30.01,29.86,14,4,22,0.00
2013-7-16,86.0,72.6,58.5,33.5,20.8,8.7,36,16,7,29.86,29.77,11,2,17,0.00
2013-7-17,74.3,67.4,61.7,45.1,37.0,27.3,53,34,18,30.15,29.83,10,4,15,0.04
2013-7-18,81.5,68.0,60.4,45.2,34.9,16.6,56,34,9,30.18,30.09,9,2,13,0.00
2013-7-19,82.6,67.7,56.1,48.3,37.8,21.9,70,38,11,30.12,30.01,8,2,12,0.00
2013-7-20,79.7,65.4,57.0,50.9,39.9,17.5,75,45,12,30.04,29.92,6,2,10,0.00
2013-7-21,80.1,65.6,57.0,51.1,41.2,21.9,79,47,12,29.95,29.89,7,2,9,0.00
2013-7-22,82.8,67.5,57.9,53.3,37.2,16.6,82,40,9,30.01,29.89,7,2,10,0.00
2013-7-23,85.5,69.5,56.5,51.4,31.5,8.7,80,34,6,30.04,29.95,9,3,14,0.00
2013-7-24,86.9,71.7,57.2,52.5,27.0,8.7,77,26,6,30.01,29.98,9,2,11,0.00
2013-7-25,88.2,71.0,54.9,47.6,27.8,8.7,76,27,6,30.06,29.98,8,2,11,0.00
2013-7-26,86.9,71.3,55.9,44.6,24.3,8.5,61,23,6,30.09,30.04,9,2,13,0.00
2013-7-27,82.6,68.4,56.7,43.1,26.2,8.7,60,25,6,30.12,29.95,7,2,10,0.00
2013-7-28,70.9,62.2,55.8,46.3,37.8,29.6,70,43,23,29.98,29.92,9,4,14,0.00
2013-7-29,80.6,66.9,57.2,42.0,31.8,15.0,56,32,9,29.98,29.92,7,2,9,0.00
2013-7-30,81.3,66.8,57.2,48.1,35.9,16.6,71,38,9,30.09,29.98,7,3,11,0.00
2013-7-31,72.9,64.2,57.6,52.3,43.9,33.5,81,51,24,30.06,29.95,5,1,6,0.00
2013-8-1,70.7,62.9,57.2,52.8,40.5,30.3,82,46,23,30.04,29.98,10,4,13,0.00
2013-8-2,62.6,61.1,59.5,54.6,48.7,40.6,81,64,48,30.09,30.01,9,2,13,0.13
2013-8-3,76.5,65.6,59.0,56.2,43.4,24.4,86,52,15,30.09,30.01,9,2,11,0.00
2013-8-4,81.9,68.5,56.1,52.3,36.6,16.4,81,39,9,30.04,29.92,10,3,13,0.00
2013-8-5,88.7,71.9,57.9,51.6,33.2,16.5,73,32,8,29.98,29.89,9,2,11,0.00
2013-8-6,88.9,70.9,56.1,50.9,31.4,14.9,71,31,8,29.95,29.89,6,2,10,0.00
2013-8-7,89.8,71.1,56.7,49.4,32.7,15.5,70,32,7,29.98,29.92,8,2,13,0.00
2013-8-8,85.8,69.5,59.5,50.6,35.6,16.5,71,36,8,30.01,29.92,7,2,9,0.00
2013-8-9,84.7,70.9,57.6,50.0,32.3,16.1,75,32,8,29.95,29.83,9,2,13,0.00
2013-8-10,80.8,68.0,60.3,58.4,45.8,34.5,81,49,19,29.98,29.86,9,2,12,0.12
2013-8-11,79.5,67.2,59.0,47.1,34.6,15.0,61,35,10,30.01,29.98,8,3,11,0.00
2013-8-12,81.3,68.0,59.7,45.3,34.8,16.3,58,35,9,30.04,29.98,10,2,12,0.00
2013-8-13,85.3,70.1,59.2,48.4,32.2,16.0,67,31,8,30.06,29.89,8,2,13,0.00
2013-8-14,81.0,68.2,57.6,57.2,38.8,16.6,71,40,9,29.92,29.86,8,2,11,0.00
2013-8-15,70.9,67.0,61.7,59.9,55.1,46.9,77,66,44,29.95,29.89,7,1,11,0.00
2013-8-16,86.9,71.8,60.1,63.6,39.4,8.7,95,44,6,30.01,29.95,9,2,10,0.05
2013-8-17,81.0,70.0,63.5,44.2,37.3,22.3,47,32,12,30.04,29.98,9,4,13,0.00
2013-8-18,82.8,68.5,60.4,47.8,34.7,16.6,61,33,9,30.09,30.04,11,3,19,0.00
2013-8-19,82.9,68.8,61.0,44.4,31.9,15.9,51,29,9,30.06,30.04,12,3,18,0.00
2013-8-20,76.8,68.2,60.3,38.8,27.0,8.5,44,24,8,30.12,30.04,12,3,17,0.00
2013-8-21,79.0,67.6,53.2,38.1,25.5,14.9,54,25,10,30.06,29.92,11,3,17,0.00
2013-8-22,84.0,70.8,56.3,41.9,27.0,9.9,55,24,7,29.92,29.77,8,2,13,0.00
2013-8-23,77.9,68.6,62.4,46.1,35.7,15.3,54,33,10,29.86,29.80,10,5,15,0.00
2013-8-24,78.6,67.6,61.7,46.5,35.6,14.9,55,35,10,29.89,29.83,10,3,15,0.00
2013-8-25,76.3,65.9,55.8,47.7,34.9,14.9,61,35,10,29.89,29.83,8,1,13,0.00
2013-8-26,77.7,66.9,61.3,47.6,38.3,14.9,57,37,10,29.92,29.83,10,2,14,0.00
2013-8-27,81.7,69.7,62.6,60.5,35.8,16.6,83,34,9,29.92,29.77,9,2,14,0.00
2013-8-28,82.2,70.9,61.5,63.1,41.4,17.0,94,42,9,29.86,29.80,7,1,9,0.16
2013-8-29,74.3,68.1,65.1,63.0,56.1,43.2,88,67,34,29.98,29.83,9,2,12,0.33
2013-8-30,81.9,69.6,62.1,57.1,37.6,9.6,73,39,7,30.09,29.98,10,4,15,0.00
2013-8-31,77.9,66.6,55.6,52.8,37.7,20.7,80,40,13,30.04,29.80,11,2,15,0.00
2013-9-1,84.6,69.2,57.7,57.0,38.1,16.5,82,41,8,29.86,29.77,7,2,10,0.00
2013-9-2,85.3,71.5,60.4,50.2,33.2,16.5,68,31,8,29.92,29.83,8,2,11,0.00
2013-9-3,76.5,66.9,62.4,63.9,50.2,33.5,95,59,23,30.01,29.89,6,1,8,0.13
2013-9-4,74.8,65.2,59.2,55.3,48.5,38.3,83,57,27,30.01,29.95,8,1,10,0.00
2013-9-5,63.1,60.7,59.7,57.2,54.5,50.8,89,80,65,30.01,29.95,5,0,9,0.04
2013-9-8,81.7,73.8,60.8,56.3,32.8,16.6,85,28,9,30.06,29.98,5,2,8,0.00
2013-9-9,78.4,65.6,58.1,55.4,45.0,23.4,88,54,15,30.04,29.95,9,2,13,0.00
2013-9-10,77.2,66.5,55.6,57.0,43.6,33.2,90,49,21,29.95,29.86,9,2,14,0.00
2013-9-11,78.8,72.0,66.9,44.9,36.4,17.1,45,29,10,29.89,29.86,6,0,10,0.00
2013-9-12,81.7,68.0,61.0,61.3,44.6,23.2,93,49,14,29.98,29.89,6,1,7,0.00
2013-9-13,68.4,64.2,60.3,62.2,51.3,44.7,93,64,44,29.92,29.83,6,1,8,0.00
2013-9-14,71.8,64.0,59.7,54.8,49.3,40.2,81,61,33,29.86,29.71,8,2,10,0.00
2013-9-15,66.6,61.5,57.6,61.8,53.9,46.1,96,77,50,29.77,29.65,9,2,11,0.16
2013-9-16,71.1,62.6,58.8,57.8,48.4,38.8,87,61,32,29.89,29.77,11,4,15,0.00
2013-9-17,64.6,60.4,56.1,57.7,42.5,31.0,93,54,30,29.89,29.83,5,0,8,0.00
2013-9-18,72.5,61.8,54.1,51.2,34.7,12.1,84,45,11,30.04,29.89,8,2,8,0.00
2013-9-19,79.3,63.8,49.5,46.4,29.0,8.5,76,36,7,30.01,29.74,6,1,8,0.00
2013-9-20,76.6,63.5,54.3,53.7,34.6,14.9,79,41,10,29.74,29.56,9,2,15,0.09
2013-9-21,72.3,62.3,57.0,51.4,41.5,19.2,77,51,16,29.68,29.62,9,2,13,0.00
2013-9-22,62.6,59.1,56.7,52.3,42.9,30.0,80,56,30,29.68,29.53,12,7,17,0.21
2013-9-23,63.3,57.6,54.7,50.0,42.6,33.7,81,58,38,29.92,29.68,11,5,17,0.28
2013-9-24,66.4,57.1,52.3,47.1,38.3,16.0,79,54,18,29.92,29.80,9,3,11,0.00
2013-9-25,63.0,54.2,48.6,46.9,38.3,21.1,84,59,24,29.98,29.80,9,2,15,0.05
2013-9-26,65.7,54.2,45.0,49.8,37.0,20.0,96,58,18,30.09,29.98,7,1,10,0.00
2013-9-27,58.6,55.6,51.8,52.3,41.6,35.4,80,60,45,30.06,29.80,12,5,20,0.08
2013-9-28,61.3,56.8,53.2,57.0,49.8,44.3,92,78,57,29.80,29.30,16,5,28,1.29
2013-9-29,56.8,54.4,53.1,50.6,41.5,34.2,85,62,46,29.50,29.09,15,7,23,0.49
2013-9-30,59.7,53.7,50.4,45.7,37.7,28.4,78,56,35,29.86,29.36,14,8,22,0.09
2013-10-1,60.1,53.1,48.7,46.6,35.1,22.6,85,52,25,30.04,29.83,12,6,22,0.08
2013-10-2,59.4,52.2,50.2,45.6,40.0,29.9,82,65,35,30.12,29.80,10,3,18,0.25
2013-10-3,62.2,53.0,46.0,45.3,36.1,18.4,82,57,21,30.39,30.12,7,1,9,0.00
2013-10-4,65.7,53.5,43.9,44.5,32.8,11.9,88,53,13,30.42,30.30,7,0,9,0.00
2013-10-5,69.1,55.9,44.8,53.1,30.7,9.3,93,48,10,30.30,30.09,8,1,10,0.00
2013-10-6,73.4,58.8,46.6,50.4,29.6,7.2,88,44,8,30.09,29.83,10,3,15,0.00
2013-10-7,63.9,56.9,53.6,49.2,37.7,15.9,79,52,18,29.95,29.86,12,6,18,0.04
2013-10-8,68.9,52.7,45.3,45.3,35.1,10.1,78,53,10,30.15,29.92,11,2,16,0.08
2013-10-9,62.1,50.4,42.3,43.3,32.3,10.9,96,56,17,30.09,29.92,6,1,8,0.00
2013-10-10,62.8,53.6,47.1,44.6,36.9,24.2,77,56,24,30.04,29.86,6,1,8,0.00
2013-10-11,57.4,53.1,49.6,50.7,40.9,30.8,91,65,38,30.09,30.01,4,0,5,0.00
2013-10-12,59.4,52.1,45.3,46.6,40.5,30.3,84,67,35,30.15,30.01,10,2,15,0.04
2013-10-13,61.3,50.3,41.9,47.9,35.3,10.9,92,62,14,30.30,30.15,8,1,10,0.00
2013-10-14,61.5,49.5,40.8,45.8,34.3,18.3,96,62,19,30.36,30.30,7,1,10,0.00
2013-10-15,61.7,50.4,42.1,45.6,36.3,23.8,89,63,24,30.33,30.12,8,1,9,0.00
2013-10-17,68.9,53.9,46.6,49.3,35.7,10.1,81,53,10,30.21,30.15,7,1,9,0.00
2013-10-18,56.7,49.1,44.2,48.5,40.7,32.9,90,74,42,30.18,30.09,8,1,10,0.00
2013-10-19,51.3,48.8,47.1,45.8,42.9,40.0,90,80,66,30.12,30.06,4,0,7,0.00
2013-10-20,52.0,49.6,48.4,44.2,42.0,38.6,82,75,61,30.12,30.06,5,0,6,0.00
2013-10-21,52.9,50.1,48.6,45.2,43.1,40.7,85,77,64,30.12,30.06,5,1,8,0.00
2013-10-22,55.6,50.0,47.3,45.2,42.7,35.9,88,77,48,30.06,29.98,8,1,10,0.00
2013-10-23,59.5,49.9,44.1,47.2,40.8,29.8,94,73,34,30.01,29.95,6,0,7,0.00
2013-10-24,54.0,48.5,43.7,52.3,43.6,37.0,96,83,71,30.06,29.95,5,0,6,0.00
2013-10-25,55.0,50.4,45.9,45.8,42.4,35.2,86,75,49,30.27,30.06,4,0,6,0.00
2013-10-26,58.5,51.8,46.6,48.4,37.8,29.8,84,61,35,30.27,30.15,7,1,10,0.00
2013-10-31,51.3,51.2,51.1,41.4,41.3,41.3,69,69,69,30.09,30.06,4,2,9,0.00
2013-11-2,54.3,49.8,41.3,37.9,27.9,19.8,63,43,27,29.97,29.47,20,6,28,0.00
2013-11-3,56.7,45.8,39.0,45.6,30.5,11.3,96,58,17,30.04,29.83,6,1,9,0.00
2013-11-4,53.6,45.5,37.6,36.9,26.2,6.3,83,52,16,30.12,30.01,6,0,8,0.05
2013-11-5,51.6,48.4,45.3,45.4,40.5,32.3,87,74,56,30.18,29.95,6,0,9,0.00
2013-11-6,54.0,49.3,44.2,42.4,36.5,26.8,79,63,36,30.27,29.98,5,0,8,0.04
2013-11-7,51.4,50.2,49.3,46.4,41.6,31.2,85,73,46,29.98,29.65,15,6,24,0.66
2013-11-8,56.8,50.5,45.5,39.2,32.3,24.5,77,51,30,30.09,29.92,9,3,11,0.00
2013-11-9,53.1,46.7,39.9,41.1,34.8,21.2,81,65,32,30.09,30.01,6,0,8,0.04
2013-11-10,51.1,48.1,46.0,43.1,37.8,31.8,83,68,49,30.09,30.04,8,2,11,0.05
2013-11-11,47.8,46.7,45.9,41.3,39.4,34.9,79,76,63,30.09,30.04,8,2,11,0.00
2013-11-18,52.9,51.4,41.3,49.2,45.3,31.5,89,79,38,29.97,29.39,12,4,16,1.97
2013-11-19,53.2,45.2,38.1,48.4,25.5,-1.5,93,51,16,29.86,29.36,12,2,20,0.11
2013-11-20,46.2,38.1,32.7,22.2,11.2,-1.0,59,35,15,30.21,29.86,9,2,14,0.00
2013-11-21,46.2,35.5,29.1,16.7,10.9,-0.7,58,39,15,30.24,30.09,10,2,12,0.00
2013-11-22,46.0,37.8,29.7,33.8,13.7,0.1,92,40,15,30.21,27.02,10,2,15,0.00
2013-11-23,50.4,40.3,31.6,35.9,21.2,12.5,86,48,24,30.01,28.50,7,2,11,0.00
2013-11-24,50.0,40.5,33.1,37.0,27.5,23.0,88,62,35,28.50,28.50,7,1,10,0.00
2013-11-25,54.5,41.6,33.8,43.0,27.8,7.7,92,63,15,28.50,28.50,4,0,6,0.00
2013-11-26,53.2,44.3,35.4,41.2,29.0,18.3,95,60,26,28.50,28.50,5,1,6,0.00
2013-11-27,56.3,46.3,38.5,36.1,28.3,22.9,76,51,29,28.50,28.50,7,1,11,0.00
2013-11-28,48.6,39.8,34.3,43.1,34.1,29.4,93,80,51,28.50,28.50,4,0,5,0.00
2013-11-29,48.9,44.5,39.0,42.1,38.0,31.5,93,78,55,28.50,28.50,7,1,8,0.00
2013-11-30,50.7,49.0,46.2,43.6,36.2,28.6,80,62,44,28.50,28.50,13,6,21,0.00
2013-12-1,53.8,51.1,41.3,47.1,38.5,25.6,86,63,38,29.97,28.50,14,6,22,2.08
2013-12-2,48.2,41.7,37.4,37.9,20.9,3.6,89,48,16,29.97,29.97,8,2,10,0.05
2013-12-4,41.3,28.1,27.0,31.5,7.5,5.2,43,40,37,29.97,29.97,1,0,0,2.13
2013-12-5,35.4,29.3,24.1,26.1,4.1,-7.9,91,37,17,29.97,29.97,7,0,9,0.00
2013-12-6,35.8,28.5,23.5,-6.8,-10.6,-13.3,19,16,14,29.97,29.97,9,2,12,0.00
2013-12-7,33.1,25.0,20.1,-5.5,-12.4,-15.7,30,17,15,29.97,29.97,10,2,12,0.00
2013-12-8,38.3,27.2,19.8,21.8,1.0,-8.3,77,34,16,29.97,29.97,5,0,6,0.00
2013-12-9,37.6,31.0,23.2,29.4,7.6,-0.9,90,38,22,29.97,29.97,5,0,6,0.00
2013-12-10,43.5,37.2,34.5,35.6,19.7,13.3,75,49,39,29.97,29.97,5,1,8,0.00
2013-12-11,41.0,35.3,29.5,32.6,22.5,17.5,82,60,40,29.97,29.97,5,0,6,0.00
2013-12-12,43.5,39.9,35.4,37.3,29.6,16.4,89,69,35,29.97,29.97,8,2,11,0.04
2013-12-13,47.3,44.8,43.2,45.2,39.2,36.8,93,81,70,29.97,29.97,7,2,10,0.05
2013-12-16,42.3,41.9,41.3,40.9,40.2,31.5,95,92,38,29.97,29.97,0,0,3,0.00
2013-12-17,47.1,43.2,41.4,41.2,36.2,29.0,95,77,55,29.97,29.97,8,1,10,0.00
2013-12-18,46.8,42.8,38.1,37.5,26.3,6.2,78,55,20,29.97,29.97,11,3,15,0.03
2013-12-19,41.5,36.6,32.0,26.8,9.3,-2.5,62,33,16,29.97,29.97,10,1,17,0.00
2013-12-20,43.3,37.7,33.3,39.4,28.3,8.5,86,70,32,29.97,29.97,18,3,25,0.16
2013-12-21,47.7,43.6,40.6,45.0,38.9,36.2,93,84,74,29.97,29.97,6,0,9,0.17
2013-12-22,51.6,48.1,45.1,49.6,44.5,41.2,94,87,77,29.97,29.97,11,2,20,0.25
2013-12-23,56.1,48.9,41.0,46.5,37.4,25.6,87,66,37,30.42,29.97,15,5,21,0.05
2013-12-24,48.7,40.4,34.5,39.0,29.7,19.2,86,67,31,30.54,30.42,7,0,8,0.00
2013-12-25,43.3,36.2,32.2,34.7,28.0,19.7,88,73,40,30.45,30.30,4,0,5,0.00
2013-12-26,44.8,38.5,34.7,35.4,31.3,22.9,88,76,38,30.30,30.09,5,0,6,0.00
2013-12-27,45.9,41.7,36.9,40.7,36.6,26.1,94,83,48,30.30,30.01,10,1,12,0.00
2013-12-28,48.6,43.8,37.0,41.6,36.6,28.4,87,76,38,30.45,29.97,3,0,4,0.00
2013-12-29,46.2,41.3,37.6,44.1,34.3,27.3,94,77,38,30.42,29.97,3,0,5,0.05
2013-12-30,47.7,42.9,39.9,46.6,35.6,29.4,96,76,54,30.24,30.06,6,0,6,0.00
2013-12-31,46.9,44.4,39.4,40.7,36.4,27.8,82,74,49,30.30,30.12,7,0,8,0.05
2014-1-1,48.7,43.5,39.9,46.5,36.8,24.8,94,79,42,30.33,30.18,4,0,6,0.00
2014-1-2,50.0,46.5,43.0,46.9,35.6,25.2,96,68,38,30.18,29.83,12,3,17,0.28